BHS201 KFLL-MYNN
Flight info
| Callsign | BHS201 |
|---|---|
| Flight time | 0h 28m |
| Altitude | 19000 |
| Route | SNAPR2 RAJAY DCT |
| Aircraft | B737/M-SDE2E3FGHIRWXY/LB1 |
Departure
| Time | 2026-05-07 03:26 |
|---|---|
| Airport | Fort Lauderdale Hollywood International Airport (KFLL) |
Arrival
| Time | 2026-05-07 03:54 |
|---|---|
| Airport | Lynden Pindling International Airport (MYNN) |
| Time | Latitude | Longitude | Altitude | Speed | Heading |
|---|---|---|---|---|---|
| 2026-05-07 02:56 | 26.07369 | -80.13799 | 16 ft | 0 kts | 246° |
| 2026-05-07 03:10 | 26.07377 | -80.13780 | 15 ft | 4 kts | 250° |
| 2026-05-07 03:11 | 26.07385 | -80.13751 | 15 ft | 4 kts | 260° |
| 2026-05-07 03:11 | 26.07388 | -80.13728 | 15 ft | 4 kts | 244° |
| 2026-05-07 03:11 | 26.07404 | -80.13712 | 15 ft | 4 kts | 185° |
| 2026-05-07 03:11 | 26.07427 | -80.13713 | 17 ft | 4 kts | 140° |
| 2026-05-07 03:12 | 26.07434 | -80.13728 | 16 ft | 4 kts | 48° |
| 2026-05-07 03:12 | 26.07414 | -80.13735 | 18 ft | 4 kts | 0° |
| 2026-05-07 03:12 | 26.07407 | -80.13735 | 15 ft | 0 kts | 0° |
| 2026-05-07 03:14 | 26.07411 | -80.13735 | 15 ft | 2 kts | 0° |
| 2026-05-07 03:15 | 26.07444 | -80.13735 | 15 ft | 8 kts | 0° |
| 2026-05-07 03:15 | 26.07469 | -80.13781 | 15 ft | 8 kts | 273° |
| 2026-05-07 03:15 | 26.07472 | -80.13843 | 15 ft | 8 kts | 276° |
| 2026-05-07 03:15 | 26.07483 | -80.13902 | 15 ft | 8 kts | 282° |
| 2026-05-07 03:16 | 26.07487 | -80.13958 | 15 ft | 7 kts | 265° |
| 2026-05-07 03:16 | 26.07483 | -80.14014 | 15 ft | 7 kts | 271° |
| 2026-05-07 03:16 | 26.07483 | -80.14069 | 15 ft | 7 kts | 270° |
| 2026-05-07 03:16 | 26.07485 | -80.14122 | 15 ft | 7 kts | 271° |
| 2026-05-07 03:17 | 26.07485 | -80.14174 | 15 ft | 7 kts | 270° |
| 2026-05-07 03:17 | 26.07486 | -80.14236 | 15 ft | 10 kts | 271° |
| 2026-05-07 03:17 | 26.07486 | -80.14330 | 15 ft | 14 kts | 270° |
| 2026-05-07 03:17 | 26.07487 | -80.14451 | 15 ft | 16 kts | 270° |
| 2026-05-07 03:18 | 26.07487 | -80.14573 | 15 ft | 15 kts | 270° |
| 2026-05-07 03:18 | 26.07488 | -80.14690 | 15 ft | 15 kts | 270° |
| 2026-05-07 03:18 | 26.07487 | -80.14803 | 15 ft | 14 kts | 268° |
| 2026-05-07 03:18 | 26.07491 | -80.14910 | 15 ft | 14 kts | 274° |
| 2026-05-07 03:19 | 26.07491 | -80.15013 | 15 ft | 13 kts | 269° |
| 2026-05-07 03:19 | 26.07490 | -80.15112 | 15 ft | 13 kts | 269° |
| 2026-05-07 03:19 | 26.07489 | -80.15209 | 15 ft | 12 kts | 270° |
| 2026-05-07 03:19 | 26.07479 | -80.15296 | 15 ft | 10 kts | 211° |
| 2026-05-07 03:20 | 26.07410 | -80.15299 | 15 ft | 10 kts | 181° |
| 2026-05-07 03:20 | 26.07339 | -80.15299 | 15 ft | 11 kts | 179° |
| 2026-05-07 03:20 | 26.07247 | -80.15297 | 15 ft | 15 kts | 178° |
| 2026-05-07 03:20 | 26.07127 | -80.15299 | 15 ft | 19 kts | 181° |
| 2026-05-07 03:21 | 26.06996 | -80.15299 | 16 ft | 19 kts | 179° |
| 2026-05-07 03:21 | 26.06868 | -80.15299 | 15 ft | 18 kts | 182° |
| 2026-05-07 03:21 | 26.06767 | -80.15349 | 15 ft | 17 kts | 244° |
| 2026-05-07 03:21 | 26.06694 | -80.15445 | 15 ft | 17 kts | 269° |
| 2026-05-07 03:22 | 26.06698 | -80.15572 | 15 ft | 16 kts | 270° |
| 2026-05-07 03:22 | 26.06679 | -80.15658 | 16 ft | 1 kts | 212° |
| 2026-05-07 03:22 | 26.06678 | -80.15658 | 16 ft | 0 kts | 211° |
| 2026-05-07 03:23 | 26.06677 | -80.15659 | 16 ft | 1 kts | 210° |
| 2026-05-07 03:24 | 26.06659 | -80.15660 | 16 ft | 5 kts | 180° |
| 2026-05-07 03:24 | 26.06626 | -80.15661 | 19 ft | 5 kts | 181° |
| 2026-05-07 03:24 | 26.06592 | -80.15657 | 21 ft | 6 kts | 153° |
| 2026-05-07 03:24 | 26.06589 | -80.15609 | 22 ft | 7 kts | 91° |
| 2026-05-07 03:25 | 26.06587 | -80.15367 | 21 ft | 65 kts | 90° |
| 2026-05-07 03:25 | 26.06582 | -80.14631 | 34 ft | 121 kts | 90° |
| 2026-05-07 03:25 | 26.06597 | -80.13565 | 180 ft | 150 kts | 87° |
| 2026-05-07 03:25 | 26.06666 | -80.12379 | 564 ft | 167 kts | 87° |
| 2026-05-07 03:26 | 26.06691 | -80.11042 | 1081 ft | 172 kts | 89° |
| 2026-05-07 03:26 | 26.06691 | -80.09750 | 1890 ft | 161 kts | 90° |
| 2026-05-07 03:26 | 26.06695 | -80.08417 | 2358 ft | 189 kts | 90° |
| 2026-05-07 03:26 | 26.06700 | -80.06844 | 2642 ft | 218 kts | 90° |
| 2026-05-07 03:27 | 26.06708 | -80.05058 | 3010 ft | 239 kts | 90° |
| 2026-05-07 03:27 | 26.06716 | -80.03108 | 3386 ft | 263 kts | 90° |
| 2026-05-07 03:27 | 26.06726 | -80.01040 | 4163 ft | 270 kts | 90° |
| 2026-05-07 03:27 | 26.06718 | -79.98930 | 5032 ft | 275 kts | 91° |
| 2026-05-07 03:28 | 26.06697 | -79.96799 | 5982 ft | 276 kts | 91° |
| 2026-05-07 03:28 | 26.06674 | -79.94680 | 6899 ft | 279 kts | 90° |
| 2026-05-07 03:28 | 26.06651 | -79.92511 | 7766 ft | 283 kts | 89° |
| 2026-05-07 03:28 | 26.06629 | -79.90304 | 8685 ft | 287 kts | 89° |
| 2026-05-07 03:29 | 26.06607 | -79.88062 | 9633 ft | 292 kts | 89° |
| 2026-05-07 03:29 | 26.06584 | -79.85784 | 10493 ft | 299 kts | 88° |
| 2026-05-07 03:29 | 26.06561 | -79.83375 | 10797 ft | 326 kts | 89° |
| 2026-05-07 03:29 | 26.06340 | -79.80755 | 11000 ft | 355 kts | 96° |
| 2026-05-07 03:30 | 26.05885 | -79.77957 | 11295 ft | 376 kts | 98° |
| 2026-05-07 03:30 | 26.05371 | -79.75081 | 11955 ft | 382 kts | 98° |
| 2026-05-07 03:30 | 26.04870 | -79.72165 | 12766 ft | 385 kts | 97° |
| 2026-05-07 03:30 | 26.04401 | -79.69265 | 13566 ft | 387 kts | 97° |
| 2026-05-07 03:31 | 26.03936 | -79.66295 | 14263 ft | 392 kts | 96° |
| 2026-05-07 03:31 | 26.03428 | -79.63293 | 14847 ft | 399 kts | 99° |
| 2026-05-07 03:31 | 26.02756 | -79.60271 | 15426 ft | 406 kts | 101° |
| 2026-05-07 03:31 | 26.02010 | -79.57219 | 16008 ft | 412 kts | 102° |
| 2026-05-07 03:32 | 26.01245 | -79.54130 | 16585 ft | 417 kts | 102° |
| 2026-05-07 03:32 | 26.00483 | -79.51001 | 17144 ft | 422 kts | 101° |
| 2026-05-07 03:32 | 25.99725 | -79.47829 | 17664 ft | 427 kts | 101° |
| 2026-05-07 03:32 | 25.98967 | -79.44616 | 18202 ft | 432 kts | 101° |
| 2026-05-07 03:33 | 25.98210 | -79.41405 | 18820 ft | 427 kts | 101° |
| 2026-05-07 03:33 | 25.97455 | -79.38225 | 19061 ft | 425 kts | 102° |
| 2026-05-07 03:33 | 25.96532 | -79.35043 | 19078 ft | 442 kts | 107° |
| 2026-05-07 03:33 | 25.95414 | -79.31796 | 19095 ft | 455 kts | 108° |
| 2026-05-07 03:34 | 25.94211 | -79.28495 | 19095 ft | 467 kts | 109° |
| 2026-05-07 03:34 | 25.92973 | -79.25125 | 19093 ft | 475 kts | 109° |
| 2026-05-07 03:34 | 25.91742 | -79.21735 | 19077 ft | 472 kts | 109° |
| 2026-05-07 03:34 | 25.90532 | -79.18348 | 19074 ft | 471 kts | 108° |
| 2026-05-07 03:35 | 25.89338 | -79.14966 | 19075 ft | 470 kts | 108° |
| 2026-05-07 03:35 | 25.88165 | -79.11616 | 19077 ft | 470 kts | 108° |
| 2026-05-07 03:35 | 25.86984 | -79.08230 | 19079 ft | 470 kts | 108° |
| 2026-05-07 03:35 | 25.85801 | -79.04839 | 19082 ft | 471 kts | 108° |
| 2026-05-07 03:36 | 25.84615 | -79.01443 | 19077 ft | 472 kts | 108° |
| 2026-05-07 03:36 | 25.83427 | -78.98049 | 19076 ft | 472 kts | 108° |
| 2026-05-07 03:36 | 25.82236 | -78.94651 | 19078 ft | 473 kts | 108° |
| 2026-05-07 03:36 | 25.81042 | -78.91248 | 19076 ft | 473 kts | 108° |
| 2026-05-07 03:37 | 25.79849 | -78.87851 | 19078 ft | 473 kts | 108° |
| 2026-05-07 03:37 | 25.78653 | -78.84450 | 19077 ft | 472 kts | 108° |
| 2026-05-07 03:37 | 25.77459 | -78.81056 | 19075 ft | 472 kts | 108° |
| 2026-05-07 03:37 | 25.76263 | -78.77659 | 19076 ft | 472 kts | 108° |
| 2026-05-07 03:38 | 25.75068 | -78.74267 | 19073 ft | 472 kts | 108° |
| 2026-05-07 03:38 | 25.73806 | -78.70905 | 19069 ft | 474 kts | 114° |
| 2026-05-07 03:38 | 25.72074 | -78.67769 | 19094 ft | 477 kts | 122° |
| 2026-05-07 03:38 | 25.70159 | -78.64765 | 19081 ft | 478 kts | 123° |
| 2026-05-07 03:39 | 25.68214 | -78.61777 | 19077 ft | 478 kts | 123° |
| 2026-05-07 03:39 | 25.66309 | -78.58807 | 19075 ft | 478 kts | 122° |
| 2026-05-07 03:39 | 25.64413 | -78.55779 | 19076 ft | 478 kts | 122° |
| 2026-05-07 03:39 | 25.62539 | -78.52735 | 19076 ft | 478 kts | 121° |
| 2026-05-07 03:40 | 25.60672 | -78.49686 | 19073 ft | 478 kts | 121° |
| 2026-05-07 03:40 | 25.58800 | -78.46634 | 19073 ft | 478 kts | 122° |
| 2026-05-07 03:40 | 25.56765 | -78.43716 | 19060 ft | 481 kts | 133° |
| 2026-05-07 03:40 | 25.54274 | -78.41229 | 19062 ft | 481 kts | 138° |
| 2026-05-07 03:41 | 25.51702 | -78.38869 | 18408 ft | 478 kts | 139° |
| 2026-05-07 03:41 | 25.49140 | -78.36558 | 17523 ft | 472 kts | 139° |
| 2026-05-07 03:41 | 25.46649 | -78.34282 | 16807 ft | 457 kts | 139° |
| 2026-05-07 03:41 | 25.44216 | -78.32019 | 15874 ft | 453 kts | 138° |
| 2026-05-07 03:42 | 25.41861 | -78.29796 | 15185 ft | 442 kts | 138° |
| 2026-05-07 03:42 | 25.39557 | -78.27607 | 14518 ft | 432 kts | 138° |
| 2026-05-07 03:42 | 25.37305 | -78.25463 | 13797 ft | 424 kts | 138° |
| 2026-05-07 03:42 | 25.35083 | -78.23348 | 12950 ft | 418 kts | 138° |
| 2026-05-07 03:43 | 25.32896 | -78.21271 | 12144 ft | 412 kts | 138° |
| 2026-05-07 03:43 | 25.30770 | -78.19256 | 11571 ft | 402 kts | 138° |
| 2026-05-07 03:43 | 25.28696 | -78.17293 | 11379 ft | 382 kts | 138° |
| 2026-05-07 03:43 | 25.26724 | -78.15430 | 11241 ft | 362 kts | 138° |
| 2026-05-07 03:44 | 25.24851 | -78.13663 | 11080 ft | 347 kts | 138° |
| 2026-05-07 03:44 | 25.23051 | -78.11965 | 10897 ft | 333 kts | 137° |
| 2026-05-07 03:44 | 25.21670 | -78.10018 | 10773 ft | 315 kts | 110° |
| 2026-05-07 03:44 | 25.21347 | -78.07727 | 10681 ft | 295 kts | 85° |
| 2026-05-07 03:45 | 25.21346 | -78.05499 | 10520 ft | 287 kts | 91° |
| 2026-05-07 03:45 | 25.21216 | -78.03309 | 10179 ft | 285 kts | 92° |
| 2026-05-07 03:45 | 25.21054 | -78.01129 | 9803 ft | 285 kts | 93° |
| 2026-05-07 03:45 | 25.20881 | -77.98954 | 9427 ft | 283 kts | 94° |
| 2026-05-07 03:46 | 25.20708 | -77.96822 | 9058 ft | 282 kts | 94° |
| 2026-05-07 03:46 | 25.20533 | -77.94669 | 8666 ft | 282 kts | 94° |
| 2026-05-07 03:46 | 25.20357 | -77.92514 | 8282 ft | 281 kts | 94° |
| 2026-05-07 03:46 | 25.20182 | -77.90370 | 7940 ft | 279 kts | 94° |
| 2026-05-07 03:47 | 25.20008 | -77.88239 | 7581 ft | 279 kts | 95° |
| 2026-05-07 03:47 | 25.19834 | -77.86110 | 7212 ft | 279 kts | 95° |
| 2026-05-07 03:47 | 25.19660 | -77.83985 | 6910 ft | 276 kts | 95° |
| 2026-05-07 03:47 | 25.19487 | -77.81876 | 6593 ft | 274 kts | 96° |
| 2026-05-07 03:48 | 25.19314 | -77.79784 | 6222 ft | 274 kts | 95° |
| 2026-05-07 03:48 | 25.19142 | -77.77697 | 5891 ft | 272 kts | 95° |
| 2026-05-07 03:48 | 25.18971 | -77.75623 | 5572 ft | 270 kts | 95° |
| 2026-05-07 03:48 | 25.18800 | -77.73557 | 5256 ft | 268 kts | 95° |
| 2026-05-07 03:49 | 25.18631 | -77.71516 | 4885 ft | 268 kts | 95° |
| 2026-05-07 03:49 | 25.18463 | -77.69485 | 4551 ft | 262 kts | 95° |
| 2026-05-07 03:49 | 25.18299 | -77.67511 | 4122 ft | 258 kts | 95° |
| 2026-05-07 03:49 | 25.18139 | -77.65590 | 3938 ft | 244 kts | 95° |
| 2026-05-07 03:50 | 25.17986 | -77.63758 | 3651 ft | 237 kts | 95° |
| 2026-05-07 03:50 | 25.17772 | -77.62000 | 3415 ft | 227 kts | 109° |
| 2026-05-07 03:50 | 25.16949 | -77.60579 | 3175 ft | 217 kts | 132° |
| 2026-05-07 03:50 | 25.15908 | -77.59412 | 2897 ft | 211 kts | 135° |
| 2026-05-07 03:51 | 25.14868 | -77.58302 | 2687 ft | 203 kts | 136° |
| 2026-05-07 03:51 | 25.13875 | -77.57239 | 2468 ft | 196 kts | 135° |
| 2026-05-07 03:51 | 25.12927 | -77.56186 | 2227 ft | 191 kts | 134° |
| 2026-05-07 03:51 | 25.12005 | -77.55159 | 1975 ft | 186 kts | 134° |
| 2026-05-07 03:52 | 25.11101 | -77.54154 | 1726 ft | 182 kts | 134° |
| 2026-05-07 03:52 | 25.10220 | -77.53174 | 1470 ft | 176 kts | 133° |
| 2026-05-07 03:52 | 25.09392 | -77.52252 | 1284 ft | 162 kts | 133° |
| 2026-05-07 03:52 | 25.08642 | -77.51418 | 1050 ft | 147 kts | 132° |
| 2026-05-07 03:53 | 25.07954 | -77.50653 | 861 ft | 136 kts | 131° |
| 2026-05-07 03:53 | 25.07275 | -77.49907 | 614 ft | 141 kts | 131° |
| 2026-05-07 03:53 | 25.06581 | -77.49126 | 415 ft | 144 kts | 131° |
| 2026-05-07 03:53 | 25.05887 | -77.48355 | 236 ft | 141 kts | 133° |
| 2026-05-07 03:54 | 25.05197 | -77.47592 | 53 ft | 140 kts | 131° |
| 2026-05-07 03:54 | 25.04563 | -77.46878 | 20 ft | 106 kts | 135° |
| 2026-05-07 03:54 | 25.04213 | -77.46492 | 16 ft | 40 kts | 134° |
| 2026-05-07 03:54 | 25.04117 | -77.46286 | 20 ft | 15 kts | 108° |
| 2026-05-07 03:55 | 25.04114 | -77.46182 | 16 ft | 14 kts | 51° |
| 2026-05-07 03:55 | 25.04191 | -77.46208 | 18 ft | 13 kts | 305° |
| 2026-05-07 03:55 | 25.04253 | -77.46281 | 17 ft | 13 kts | 314° |
| 2026-05-07 03:55 | 25.04314 | -77.46352 | 16 ft | 13 kts | 314° |
| 2026-05-07 03:56 | 25.04354 | -77.46397 | 17 ft | 12 kts | 316° |
| 2026-05-07 03:56 | 25.04414 | -77.46463 | 18 ft | 12 kts | 314° |
| 2026-05-07 03:56 | 25.04472 | -77.46529 | 16 ft | 12 kts | 314° |
| 2026-05-07 03:56 | 25.04529 | -77.46591 | 16 ft | 11 kts | 314° |
| 2026-05-07 03:57 | 25.04584 | -77.46652 | 18 ft | 11 kts | 316° |
| 2026-05-07 03:57 | 25.04638 | -77.46710 | 17 ft | 11 kts | 314° |
| 2026-05-07 03:57 | 25.04704 | -77.46737 | 16 ft | 10 kts | 16° |
| 2026-05-07 03:57 | 25.04731 | -77.46680 | 16 ft | 10 kts | 123° |
| 2026-05-07 03:58 | 25.04683 | -77.46626 | 17 ft | 10 kts | 136° |
| 2026-05-07 03:58 | 25.04635 | -77.46575 | 16 ft | 9 kts | 136° |
| 2026-05-07 03:58 | 25.04585 | -77.46532 | 16 ft | 9 kts | 167° |
| 2026-05-07 03:58 | 25.04541 | -77.46576 | 17 ft | 9 kts | 246° |
| 2026-05-07 03:59 | 25.04564 | -77.46635 | 19 ft | 9 kts | 319° |
| 2026-05-07 03:59 | 25.04616 | -77.46686 | 18 ft | 12 kts | 316° |
| 2026-05-07 03:59 | 25.04697 | -77.46772 | 17 ft | 19 kts | 315° |
| 2026-05-07 03:59 | 25.04793 | -77.46877 | 17 ft | 19 kts | 314° |
| 2026-05-07 04:00 | 25.04893 | -77.46964 | 18 ft | 19 kts | 12° |
| 2026-05-07 04:00 | 25.04956 | -77.46844 | 18 ft | 18 kts | 64° |
| 2026-05-07 04:00 | 25.05037 | -77.46783 | 16 ft | 9 kts | 43° |
| 2026-05-07 04:00 | 25.05076 | -77.46754 | 16 ft | 2 kts | 27° |
| 2026-05-07 04:01 | 25.05077 | -77.46754 | 16 ft | 0 kts | 27° |